createdAt,value
2023-08-28T00:00:11.245Z,71.45
2023-08-28T00:03:03.519Z,71.23
2023-08-28T00:05:36.222Z,71.03
2023-08-28T00:08:10.042Z,71.02
2023-08-28T00:10:43.028Z,71.02
2023-08-28T00:13:14.487Z,71.01
2023-08-28T00:15:45.937Z,71.18
2023-08-28T00:18:17.561Z,71.36
2023-08-28T00:20:48.987Z,71.58
2023-08-28T00:23:20.842Z,71.60
2023-08-28T00:25:52.430Z,71.66
2023-08-28T00:28:23.942Z,71.69
2023-08-28T00:30:55.904Z,71.63
2023-08-28T00:33:27.456Z,71.63
2023-08-28T00:35:59.181Z,71.69
2023-08-28T00:38:30.606Z,71.50
2023-08-28T00:41:02.140Z,71.38
2023-08-28T00:43:33.605Z,71.39
2023-08-28T00:46:06.755Z,71.26
2023-08-28T00:48:40.048Z,71.15
2023-08-28T00:51:11.858Z,71.06
2023-08-28T00:53:43.428Z,71.05
2023-08-28T00:56:14.953Z,71.04
2023-08-28T00:58:46.468Z,70.90
2023-08-28T01:01:17.971Z,70.57
2023-08-28T01:03:49.621Z,70.74
2023-08-28T01:06:29.899Z,70.65
2023-08-28T01:09:14.764Z,70.68
2023-08-28T01:11:52.352Z,70.86
2023-08-28T01:14:28.726Z,70.92
2023-08-28T01:17:04.892Z,70.89
2023-08-28T01:19:38.362Z,71.04
2023-08-28T01:22:18.779Z,71.01
2023-08-28T01:24:54.281Z,71.14
2023-08-28T01:27:26.031Z,71.08
2023-08-28T01:30:13.230Z,70.97
2023-08-28T01:32:46.522Z,70.93
2023-08-28T01:35:21.720Z,70.74
2023-08-28T01:38:10.968Z,70.83
2023-08-28T01:40:46.271Z,70.99
2023-08-28T01:43:22.523Z,71.11
2023-08-28T01:45:55.236Z,70.81
2023-08-28T01:48:29.498Z,70.98
2023-08-28T01:51:00.947Z,70.95
2023-08-28T01:53:32.806Z,71.00
2023-08-28T01:56:27.442Z,70.84
2023-08-28T01:59:00.706Z,70.87
2023-08-28T02:01:32.323Z,70.88
2023-08-28T02:04:04.781Z,70.96
2023-08-28T02:06:36.298Z,71.06
2023-08-28T02:09:08.217Z,71.24
2023-08-28T02:11:39.694Z,71.34
2023-08-28T02:14:11.359Z,71.26
2023-08-28T02:16:42.890Z,71.06
2023-08-28T02:19:14.304Z,71.06
2023-08-28T02:21:45.824Z,71.10
2023-08-28T02:24:17.354Z,71.04
2023-08-28T02:26:48.849Z,71.05
2023-08-28T02:29:20.797Z,70.88
2023-08-28T02:31:52.309Z,70.88
2023-08-28T02:34:23.815Z,70.90
2023-08-28T02:36:55.242Z,70.96
2023-08-28T02:39:26.687Z,70.87
2023-08-28T02:41:58.150Z,71.15
2023-08-28T02:44:29.588Z,70.94
2023-08-28T02:47:01.088Z,71.09
2023-08-28T02:49:32.519Z,70.96
2023-08-28T02:52:04.224Z,70.97
2023-08-28T02:54:35.787Z,71.30
2023-08-28T02:57:08.235Z,71.45
2023-08-28T02:59:39.814Z,71.30
2023-08-28T03:02:12.089Z,71.42
2023-08-28T03:04:43.739Z,71.19
2023-08-28T03:07:15.406Z,71.00
2023-08-28T03:09:46.886Z,71.12
2023-08-28T03:12:18.371Z,71.43
2023-08-28T03:14:50.100Z,71.55
2023-08-28T03:17:21.526Z,71.59
2023-08-28T03:19:52.934Z,71.98
2023-08-28T03:22:24.605Z,71.76
2023-08-28T03:24:56.061Z,71.88
2023-08-28T03:27:27.581Z,71.92
2023-08-28T03:30:02.118Z,71.92
2023-08-28T03:32:33.655Z,72.14
2023-08-28T03:35:05.647Z,72.12
2023-08-28T03:37:37.133Z,72.31
2023-08-28T03:40:10.430Z,72.37
2023-08-28T03:42:41.930Z,72.30
2023-08-28T03:45:13.608Z,72.33
2023-08-28T03:47:45.088Z,72.38
2023-08-28T03:50:17.076Z,72.28
2023-08-28T03:52:48.644Z,72.25
2023-08-28T03:55:20.208Z,71.83
2023-08-28T03:57:51.754Z,71.85
2023-08-28T04:00:23.467Z,72.04
2023-08-28T04:02:55.846Z,71.95
2023-08-28T04:05:28.081Z,72.16
2023-08-28T04:07:59.528Z,71.96
2023-08-28T04:10:30.995Z,72.04
2023-08-28T04:13:02.875Z,71.86
2023-08-28T04:15:34.783Z,71.76
2023-08-28T04:18:06.951Z,71.70
2023-08-28T04:20:38.421Z,71.47
2023-08-28T04:23:09.930Z,71.51
2023-08-28T04:25:41.422Z,71.42
2023-08-28T04:28:14.047Z,71.37
2023-08-28T04:30:45.643Z,71.33
2023-08-28T04:33:17.124Z,71.52
2023-08-28T04:35:48.763Z,71.61
2023-08-28T04:38:20.293Z,71.56
2023-08-28T04:40:51.910Z,71.54
2023-08-28T04:43:23.495Z,71.62
2023-08-28T04:45:55.283Z,71.74
2023-08-28T04:48:27.101Z,71.69
2023-08-28T04:50:58.765Z,71.44
2023-08-28T04:53:30.263Z,71.42
2023-08-28T04:56:01.814Z,71.52
2023-08-28T04:58:35.014Z,71.44
2023-08-28T05:01:06.512Z,71.45
2023-08-28T05:03:39.498Z,71.36
2023-08-28T05:06:11.023Z,71.34
2023-08-28T05:08:42.483Z,71.50
2023-08-28T05:11:14.848Z,71.70
2023-08-28T05:13:46.373Z,71.69
2023-08-28T05:16:17.812Z,71.77
2023-08-28T05:18:49.424Z,71.85
2023-08-28T05:21:20.977Z,71.87
2023-08-28T05:23:52.456Z,71.92
2023-08-28T05:26:23.924Z,72.00
2023-08-28T05:28:55.666Z,72.00
2023-08-28T05:31:27.191Z,71.96
2023-08-28T05:33:58.857Z,71.94
2023-08-28T05:36:30.338Z,72.15
2023-08-28T05:39:01.798Z,72.03
2023-08-28T05:41:33.229Z,72.10
2023-08-28T05:44:05.619Z,72.22
2023-08-28T05:46:37.092Z,72.32
2023-08-28T05:49:09.402Z,72.44
2023-08-28T05:51:40.818Z,72.40
2023-08-28T05:54:12.339Z,72.56
2023-08-28T05:56:43.773Z,72.58
2023-08-28T05:59:15.253Z,72.74
2023-08-28T06:01:47.126Z,72.69
2023-08-28T06:04:18.622Z,72.68
2023-08-28T06:06:50.262Z,72.75
2023-08-28T06:09:21.799Z,72.75
2023-08-28T06:11:53.581Z,73.01
2023-08-28T06:14:25.085Z,72.78
2023-08-28T06:16:56.568Z,72.77
2023-08-28T06:19:28.036Z,72.86
2023-08-28T06:22:00.088Z,72.88
2023-08-28T06:24:31.600Z,73.02
2023-08-28T06:27:03.680Z,73.04
2023-08-28T06:29:35.155Z,72.89
2023-08-28T06:32:07.418Z,72.71
2023-08-28T06:34:38.974Z,72.81
2023-08-28T06:37:10.602Z,72.96
2023-08-28T06:39:42.455Z,73.01
2023-08-28T06:42:14.343Z,73.11
2023-08-28T06:44:46.404Z,72.97
2023-08-28T06:47:17.933Z,72.82
2023-08-28T06:49:49.801Z,72.88
2023-08-28T06:52:22.151Z,72.80
2023-08-28T06:54:54.046Z,72.87
2023-08-28T06:57:25.676Z,72.71
2023-08-28T06:59:57.424Z,72.59
2023-08-28T07:02:31.831Z,72.29
2023-08-28T07:05:03.953Z,72.21
2023-08-28T07:07:35.418Z,71.91
2023-08-28T07:10:09.173Z,71.80
2023-08-28T07:12:40.693Z,71.81
2023-08-28T07:15:49.432Z,71.78
2023-08-28T07:18:21.077Z,71.92
2023-08-28T07:20:52.697Z,72.06
2023-08-28T07:23:26.109Z,71.88
2023-08-28T07:26:00.498Z,71.88
2023-08-28T07:28:32.244Z,71.66
2023-08-28T07:31:05.218Z,71.57
2023-08-28T07:33:36.921Z,71.18
2023-08-28T07:36:09.305Z,70.77
2023-08-28T07:38:43.328Z,70.44
2023-08-28T07:41:15.096Z,70.10
2023-08-28T07:43:46.701Z,69.80
2023-08-28T07:46:18.591Z,69.70
2023-08-28T07:48:50.115Z,69.58
2023-08-28T07:51:21.614Z,69.38
2023-08-28T07:53:53.091Z,69.16
2023-08-28T07:56:24.596Z,69.04
2023-08-28T07:58:56.038Z,68.91
2023-08-28T08:01:27.956Z,68.71
2023-08-28T08:03:59.665Z,68.64
2023-08-28T08:06:32.012Z,68.51
2023-08-28T08:09:03.544Z,68.29
2023-08-28T08:11:35.382Z,68.19
2023-08-28T08:14:07.097Z,68.13
2023-08-28T08:16:38.843Z,68.17
2023-08-28T08:19:10.303Z,68.28
2023-08-28T08:21:41.759Z,68.04
2023-08-28T08:24:13.481Z,68.04
2023-08-28T08:26:45.351Z,68.23
2023-08-28T08:29:16.863Z,68.41
2023-08-28T08:31:48.587Z,68.33
2023-08-28T08:34:20.309Z,68.12
2023-08-28T08:36:52.064Z,67.90
2023-08-28T08:39:25.302Z,67.81
2023-08-28T08:41:57.047Z,67.45
2023-08-28T08:44:28.870Z,67.09
2023-08-28T08:47:02.081Z,67.14
2023-08-28T08:49:34.916Z,66.89
2023-08-28T08:52:10.523Z,66.87
2023-08-28T08:54:44.431Z,66.25
2023-08-28T08:57:23.773Z,66.17
2023-08-28T08:59:56.586Z,66.27
2023-08-28T09:02:31.524Z,66.23
2023-08-28T09:05:04.729Z,66.16
2023-08-28T09:07:37.211Z,65.95
2023-08-28T09:10:10.387Z,65.48
2023-08-28T09:12:41.900Z,65.21
2023-08-28T09:15:16.791Z,64.83
2023-08-28T09:17:48.459Z,64.48
2023-08-28T09:20:22.723Z,64.57
2023-08-28T09:22:55.889Z,64.43
2023-08-28T09:25:28.073Z,64.31
2023-08-28T09:27:59.515Z,64.25
2023-08-28T09:30:33.224Z,64.14
2023-08-28T09:33:07.774Z,64.03
2023-08-28T09:35:43.060Z,63.95
2023-08-28T09:38:14.989Z,63.52
2023-08-28T09:40:46.757Z,63.21
2023-08-28T09:43:18.901Z,63.00
2023-08-28T09:45:51.319Z,62.81
2023-08-28T09:48:26.173Z,62.70
2023-08-28T09:50:57.868Z,62.33
2023-08-28T09:53:31.136Z,61.88
2023-08-28T09:56:03.342Z,61.80
2023-08-28T09:58:37.781Z,61.97
2023-08-28T10:01:09.498Z,61.83
2023-08-28T10:03:41.421Z,61.66
2023-08-28T10:06:13.493Z,61.30
2023-08-28T10:08:47.087Z,61.01
2023-08-28T10:11:19.029Z,60.77
2023-08-28T10:13:50.984Z,60.58
2023-08-28T10:16:26.845Z,60.40
2023-08-28T10:19:08.705Z,60.25
2023-08-28T10:21:41.256Z,60.10
2023-08-28T10:24:14.700Z,59.76
2023-08-28T10:26:47.115Z,59.45
2023-08-28T10:29:21.880Z,58.99
2023-08-28T10:31:55.085Z,59.20
2023-08-28T10:34:26.815Z,59.17
2023-08-28T10:37:06.311Z,59.18
2023-08-28T10:39:44.253Z,58.96
2023-08-28T10:42:20.187Z,58.81
2023-08-28T10:44:52.193Z,58.80
2023-08-28T10:47:23.927Z,58.58
2023-08-28T10:49:58.351Z,58.53
2023-08-28T10:52:30.173Z,58.24
2023-08-28T10:55:07.816Z,58.24
2023-08-28T10:57:41.414Z,58.37
2023-08-28T11:00:19.707Z,58.12
2023-08-28T11:03:10.461Z,57.76
2023-08-28T11:05:44.043Z,57.55
2023-08-28T11:08:16.923Z,57.60
2023-08-28T11:11:14.890Z,57.78
2023-08-28T11:14:03.986Z,57.82
2023-08-28T11:16:41.034Z,57.90
2023-08-28T11:19:12.833Z,57.83
2023-08-28T11:21:44.509Z,57.82
2023-08-28T11:24:27.884Z,57.52
2023-08-28T11:26:59.482Z,57.32
2023-08-28T11:29:32.298Z,57.09
2023-08-28T11:32:05.713Z,56.99
2023-08-28T11:34:38.039Z,57.06
2023-08-28T11:37:09.566Z,57.00
2023-08-28T11:39:41.048Z,57.08
2023-08-28T11:42:15.235Z,56.90
2023-08-28T11:44:49.846Z,56.63
2023-08-28T11:47:27.814Z,56.58
2023-08-28T11:50:00.241Z,56.06
2023-08-28T11:52:32.623Z,56.11
2023-08-28T11:55:05.864Z,55.92
2023-08-28T11:57:37.654Z,55.61
2023-08-28T12:00:17.434Z,55.31
2023-08-28T12:02:50.231Z,55.20
2023-08-28T12:05:22.035Z,56.46
2023-08-28T12:07:53.840Z,56.81
2023-08-28T12:10:26.230Z,55.93
2023-08-28T12:13:00.233Z,55.60
2023-08-28T12:15:35.797Z,55.40
2023-08-28T12:18:08.529Z,55.24
2023-08-28T12:20:40.018Z,55.50
2023-08-28T12:23:15.337Z,55.50
2023-08-28T12:25:46.849Z,55.26
2023-08-28T12:28:20.959Z,54.63
2023-08-28T12:30:55.129Z,54.28
2023-08-28T12:33:26.878Z,53.96
2023-08-28T12:35:58.567Z,53.79
2023-08-28T12:38:32.302Z,54.54
2023-08-28T12:41:05.314Z,55.05
2023-08-28T12:43:40.352Z,55.45
2023-08-28T12:46:12.145Z,54.66
2023-08-28T12:48:44.756Z,54.41
2023-08-28T12:51:16.657Z,54.28
2023-08-28T12:53:48.337Z,53.81
2023-08-28T12:56:19.934Z,53.49
2023-08-28T12:58:52.042Z,53.35
2023-08-28T13:01:23.935Z,53.32
2023-08-28T13:03:55.834Z,53.10
2023-08-28T13:06:28.253Z,53.00
2023-08-28T13:08:59.990Z,52.69
2023-08-28T13:11:31.516Z,52.71
2023-08-28T13:14:04.034Z,52.79
2023-08-28T13:16:35.994Z,52.85
2023-08-28T13:19:07.672Z,52.49
2023-08-28T13:21:39.256Z,52.22
2023-08-28T13:24:11.221Z,52.30
2023-08-28T13:26:43.361Z,52.16
2023-08-28T13:29:14.948Z,52.16
2023-08-28T13:31:49.574Z,51.99
2023-08-28T13:34:21.158Z,51.75
2023-08-28T13:36:52.672Z,52.01
2023-08-28T13:39:24.157Z,52.32
2023-08-28T13:41:55.975Z,52.26
2023-08-28T13:44:30.305Z,52.54
2023-08-28T13:47:04.033Z,52.71
2023-08-28T13:49:35.497Z,52.90
2023-08-28T13:52:09.878Z,52.95
2023-08-28T13:54:42.862Z,52.89
2023-08-28T13:57:14.483Z,52.51
2023-08-28T13:59:46.036Z,52.49
2023-08-28T14:02:17.891Z,52.38
2023-08-28T14:04:49.427Z,52.09
2023-08-28T14:07:20.988Z,51.57
2023-08-28T14:09:52.545Z,51.76
2023-08-28T14:12:24.900Z,51.80
2023-08-28T14:14:56.390Z,51.41
2023-08-28T14:17:27.960Z,51.46
2023-08-28T14:19:59.918Z,51.47
2023-08-28T14:22:31.617Z,51.72
2023-08-28T14:25:03.356Z,52.59
2023-08-28T14:27:46.423Z,53.18
2023-08-28T14:30:25.342Z,53.00
2023-08-28T14:32:56.926Z,52.40
2023-08-28T14:35:28.515Z,52.40
2023-08-28T14:38:00.080Z,52.41
2023-08-28T14:40:45.425Z,52.47
2023-08-28T14:43:18.391Z,52.63
2023-08-28T14:45:50.052Z,52.23
2023-08-28T14:48:21.717Z,52.41
2023-08-28T14:50:55.404Z,52.43
2023-08-28T14:53:26.998Z,52.08
2023-08-28T14:55:58.598Z,51.81
2023-08-28T14:58:30.104Z,51.59
2023-08-28T15:01:01.632Z,51.38
2023-08-28T15:03:33.126Z,50.92
2023-08-28T15:06:04.932Z,50.58
2023-08-28T15:08:36.741Z,50.44
2023-08-28T15:11:08.661Z,49.99
2023-08-28T15:13:40.080Z,49.97
2023-08-28T15:16:11.617Z,50.09
2023-08-28T15:18:43.501Z,49.80
2023-08-28T15:21:15.035Z,49.77
2023-08-28T15:23:46.478Z,49.77
2023-08-28T15:26:17.945Z,49.84
2023-08-28T15:28:49.574Z,49.34
2023-08-28T15:31:21.204Z,49.27
2023-08-28T15:33:52.680Z,49.33
2023-08-28T15:36:24.142Z,49.50
2023-08-28T15:38:55.776Z,49.39
2023-08-28T15:41:27.694Z,49.66
2023-08-28T15:43:59.145Z,49.51
2023-08-28T15:46:30.779Z,49.72
2023-08-28T15:49:02.259Z,49.68
2023-08-28T15:51:33.780Z,49.63
2023-08-28T15:54:06.057Z,49.62
2023-08-28T15:56:37.788Z,49.48
2023-08-28T15:59:14.790Z,49.81
2023-08-28T16:01:47.647Z,49.76
2023-08-28T16:04:19.255Z,49.79
2023-08-28T16:06:51.278Z,49.94
2023-08-28T16:09:23.602Z,50.24
2023-08-28T16:11:55.229Z,50.50
2023-08-28T16:14:26.773Z,50.35
2023-08-28T16:16:58.319Z,50.58
2023-08-28T16:19:29.755Z,50.78
2023-08-28T16:22:01.301Z,51.10
2023-08-28T16:24:32.747Z,51.35
2023-08-28T16:27:04.610Z,51.22
2023-08-28T16:29:36.467Z,51.29
2023-08-28T16:32:09.214Z,51.16
2023-08-28T16:34:40.626Z,51.51
2023-08-28T16:37:12.543Z,51.95
2023-08-28T16:39:44.259Z,52.03
2023-08-28T16:42:15.816Z,52.23
2023-08-28T16:44:47.628Z,52.59
2023-08-28T16:47:21.405Z,52.47
2023-08-28T16:49:53.278Z,52.58
2023-08-28T16:52:24.769Z,52.65
2023-08-28T16:54:56.926Z,52.81
2023-08-28T16:57:28.559Z,52.97
2023-08-28T17:00:00.469Z,53.15
2023-08-28T17:02:32.362Z,53.52
2023-08-28T17:05:03.984Z,53.92
2023-08-28T17:07:35.614Z,54.22
2023-08-28T17:10:09.321Z,54.45
2023-08-28T17:12:41.069Z,54.59
2023-08-28T17:15:12.736Z,54.90
2023-08-28T17:17:44.512Z,55.32
2023-08-28T17:20:16.060Z,55.68
2023-08-28T17:22:47.742Z,55.63
2023-08-28T17:25:19.992Z,55.67
2023-08-28T17:27:51.437Z,55.67
2023-08-28T17:30:22.942Z,56.01
2023-08-28T17:32:57.581Z,56.13
2023-08-28T17:35:31.097Z,56.05
2023-08-28T17:38:02.734Z,56.12
2023-08-28T17:40:34.129Z,56.35
2023-08-28T17:43:06.365Z,56.48
2023-08-28T17:45:40.222Z,56.74
2023-08-28T17:48:11.746Z,57.35
2023-08-28T17:50:46.727Z,57.68
2023-08-28T17:53:18.409Z,57.57
2023-08-28T17:55:50.374Z,57.71
2023-08-28T17:58:22.240Z,57.67
2023-08-28T18:00:54.560Z,57.73
2023-08-28T18:03:37.673Z,57.94
2023-08-28T18:06:10.856Z,58.35
2023-08-28T18:08:42.353Z,58.50
2023-08-28T18:11:13.993Z,58.88
2023-08-28T18:13:45.618Z,58.93
2023-08-28T18:16:20.768Z,59.31
2023-08-28T18:18:56.796Z,59.70
2023-08-28T18:21:29.442Z,60.24
2023-08-28T18:24:01.410Z,60.69
2023-08-28T18:26:33.198Z,60.90
2023-08-28T18:29:05.439Z,60.89
2023-08-28T18:31:37.408Z,60.94
2023-08-28T18:34:09.057Z,61.26
2023-08-28T18:36:41.084Z,61.63
2023-08-28T18:39:13.108Z,62.17
2023-08-28T18:41:50.230Z,62.46
2023-08-28T18:44:28.462Z,62.67
2023-08-28T18:47:01.068Z,62.86
2023-08-28T18:49:33.433Z,63.11
2023-08-28T18:52:07.531Z,63.16
2023-08-28T18:54:40.337Z,63.25
2023-08-28T18:57:12.510Z,63.36
2023-08-28T18:59:44.465Z,63.62
2023-08-28T19:02:19.906Z,63.82
2023-08-28T19:04:51.676Z,64.00
2023-08-28T19:07:25.065Z,64.23
2023-08-28T19:09:56.912Z,64.43
2023-08-28T19:12:29.394Z,64.64
2023-08-28T19:15:01.366Z,64.76
2023-08-28T19:17:33.116Z,64.86
2023-08-28T19:20:05.672Z,65.06
2023-08-28T19:22:37.666Z,65.02
2023-08-28T19:25:10.468Z,64.98
2023-08-28T19:27:42.581Z,65.03
2023-08-28T19:30:14.849Z,65.18
2023-08-28T19:32:47.965Z,65.31
2023-08-28T19:35:20.104Z,65.40
2023-08-28T19:37:51.642Z,65.47
2023-08-28T19:40:23.131Z,65.41
2023-08-28T19:42:55.685Z,65.57
2023-08-28T19:45:27.204Z,65.62
2023-08-28T19:47:58.686Z,65.65
2023-08-28T19:50:34.305Z,65.81
2023-08-28T19:53:07.841Z,65.82
2023-08-28T19:55:40.852Z,65.91
2023-08-28T19:58:12.393Z,66.01
2023-08-28T20:00:43.981Z,65.88
2023-08-28T20:03:15.595Z,65.97
2023-08-28T20:05:47.226Z,66.02
2023-08-28T20:08:19.462Z,66.26
2023-08-28T20:10:54.224Z,66.29
2023-08-28T20:13:25.818Z,66.11
2023-08-28T20:15:57.437Z,66.09
2023-08-28T20:18:29.084Z,66.07
2023-08-28T20:21:00.700Z,66.09
2023-08-28T20:23:32.308Z,66.11
2023-08-28T20:26:04.168Z,66.12
2023-08-28T20:28:37.202Z,66.38
2023-08-28T20:31:08.901Z,66.39
2023-08-28T20:33:40.417Z,66.85
2023-08-28T20:36:12.408Z,66.98
2023-08-28T20:38:43.841Z,67.31
2023-08-28T20:41:15.325Z,67.50
2023-08-28T20:43:47.470Z,67.58
2023-08-28T20:46:21.356Z,67.76
2023-08-28T20:48:52.900Z,68.06
2023-08-28T20:51:24.604Z,68.16
2023-08-28T20:53:57.308Z,68.08
2023-08-28T20:56:29.041Z,68.27
2023-08-28T20:59:00.478Z,68.28
2023-08-28T21:01:32.063Z,68.14
2023-08-28T21:04:03.748Z,68.27
2023-08-28T21:06:36.660Z,68.32
2023-08-28T21:09:08.583Z,68.32
2023-08-28T21:11:40.437Z,68.25
2023-08-28T21:14:11.971Z,68.43
2023-08-28T21:16:43.464Z,68.63
2023-08-28T21:19:21.112Z,68.53
2023-08-28T21:21:52.592Z,68.49
2023-08-28T21:24:24.086Z,68.47
2023-08-28T21:26:55.664Z,68.58
2023-08-28T21:29:27.238Z,68.29
2023-08-28T21:31:59.896Z,68.37
2023-08-28T21:34:31.415Z,68.43
2023-08-28T21:37:03.949Z,68.57
2023-08-28T21:39:35.428Z,68.67
2023-08-28T21:42:07.513Z,68.70
2023-08-28T21:44:39.005Z,68.72
2023-08-28T21:47:10.518Z,68.70
2023-08-28T21:49:42.246Z,68.76
2023-08-28T21:52:13.729Z,68.69
2023-08-28T21:54:45.598Z,68.57
2023-08-28T21:57:17.431Z,68.58
2023-08-28T21:59:49.044Z,68.59
2023-08-28T22:02:20.672Z,68.59
2023-08-28T22:04:54.565Z,68.62
2023-08-28T22:07:26.259Z,68.69
2023-08-28T22:09:58.115Z,68.77
2023-08-28T22:12:29.605Z,68.78
2023-08-28T22:15:01.481Z,68.73
2023-08-28T22:17:33.192Z,68.83
2023-08-28T22:20:05.254Z,68.71
2023-08-28T22:22:36.778Z,68.61
2023-08-28T22:25:09.186Z,68.64
2023-08-28T22:27:40.674Z,68.45
2023-08-28T22:30:13.463Z,68.46
2023-08-28T22:32:45.104Z,68.48
2023-08-28T22:35:16.669Z,68.55
2023-08-28T22:37:48.174Z,68.58
2023-08-28T22:40:21.993Z,68.58
2023-08-28T22:42:53.776Z,68.50
2023-08-28T22:45:25.561Z,68.67
2023-08-28T22:47:57.417Z,68.70
2023-08-28T22:50:28.997Z,68.68
2023-08-28T22:53:00.763Z,68.51
2023-08-28T22:55:32.526Z,68.64
2023-08-28T22:58:05.157Z,68.48
2023-08-28T23:00:37.004Z,68.33
2023-08-28T23:03:08.775Z,68.38
2023-08-28T23:05:48.125Z,68.45
2023-08-28T23:08:19.686Z,68.36
2023-08-28T23:10:51.181Z,68.57
2023-08-28T23:13:22.770Z,68.64
2023-08-28T23:15:55.282Z,68.66
2023-08-28T23:18:27.295Z,68.65
2023-08-28T23:21:00.254Z,68.69
2023-08-28T23:23:31.734Z,68.70
2023-08-28T23:26:04.003Z,68.66
2023-08-28T23:28:35.481Z,68.67
2023-08-28T23:31:08.891Z,68.75
2023-08-28T23:33:40.714Z,68.75
2023-08-28T23:36:12.961Z,68.77
2023-08-28T23:38:45.354Z,68.83
2023-08-28T23:41:16.875Z,68.80
2023-08-28T23:43:48.455Z,68.92
2023-08-28T23:46:19.991Z,68.78
2023-08-28T23:48:51.593Z,68.87
2023-08-28T23:51:23.144Z,68.86
2023-08-28T23:53:54.675Z,68.63
2023-08-28T23:56:26.955Z,68.54
2023-08-28T23:58:58.563Z,68.46
